Terminal Aerodrome Forecast
Issued by NWS

Home | Current Version | Previous Version | Text Only | Print | Product List | Glossary On
Versions: 1 2 3 4 5 6 7 8 9 10 11 12 13 14 15 16 17 18 19 20 21 22 23 24 25 26 27 28
000
FTUS41 KOKX 250200 AAA
TAFGON
TAF AMD
KGON 250230Z 2503/2524 34007KT P6SM SKC
     FM251000 VRB03KT P6SM FEW250
     FM251500 21009KT P6SM SCT250
     FM252100 20010KT P6SM SCT150 BKN250=

USA.gov is the U.S. government's official web portal to all federal, state and local government web resources and services.